25 de Mayo, Argentina
Current Conditions -  °F | °C
As of 1:00 PM on Friday 24 Oct 2014 (Local Time) from SAME Reporting Station
Clear Clear  
Wind Chill: 86°   Ceiling: Unl
Heat Index: 86°   Visibility: 6mi
Dew Point: 55°   Wind: 13mph
Humidity: 35%   Direction: 140°SE
Pressure: 29.97"   Gusts: NA
Location:  34.58°S, 68.55°W
Report Text: SAME 241600Z 14011KT CAVOK 30/13 Q1015
Loading
Personal Weather Stations






























Interactive Weather Map
Tropical Storm Tracking
New forecast layout! Learn more

10-Day Weather Forecast

Advertisements
Track Severe Weather on mobile